Time;durP1;ratioP1;P1;durP2;ratioP2;P2;SDS_P1;SDS_P2;PMS_P1;PMS_P2;Temp;Humidity;BMP_temperature;BMP_pressure;BME280_temperature;BME280_humidity;BME280_pressure;Samples;Min_cycle;Max_cycle;Signal;HPM_P1;HPM_P2
2023/01/08 00:01:32;;;;;;;85.22;31.73;;;;;;;5.03;100.00;100621.69;5570405;32;34141;-88
2023/01/08 00:04:35;;;;;;;86.47;31.98;;;;;;;5.04;100.00;100623.44;5569762;32;33325;-88
2023/01/08 00:07:38;;;;;;;76.18;31.40;;;;;;;5.14;100.00;100624.09;5569134;32;34650;-88
2023/01/08 00:10:42;;;;;;;81.03;31.95;;;;;;;5.08;100.00;100624.25;5569957;32;33780;-88
2023/01/08 00:13:45;;;;;;;82.12;32.45;;;;;;;5.09;100.00;100632.06;5570117;32;34865;-88
2023/01/08 00:16:48;;;;;;;87.72;33.00;;;;;;;5.08;100.00;100626.87;5571502;32;32767;-88
2023/01/08 00:19:50;;;;;;;80.00;31.23;;;;;;;5.10;100.00;100619.81;5582039;32;33975;-88
2023/01/08 00:22:53;;;;;;;83.25;31.85;;;;;;;5.20;100.00;100613.44;5578892;32;33605;-88
2023/01/08 00:25:56;;;;;;;87.72;32.80;;;;;;;5.21;100.00;100614.28;5570559;32;34083;-88
2023/01/08 00:29:02;;;;;;;81.68;32.13;;;;;;;5.11;100.00;100616.25;5572005;32;34249;-88
2023/01/08 00:32:04;;;;;;;85.60;32.63;;;;;;;5.15;100.00;100610.03;5580320;32;33817;-88
2023/01/08 00:35:08;;;;;;;81.75;31.55;;;;;;;5.17;100.00;100607.38;5574500;32;34906;-88
2023/01/08 00:38:11;;;;;;;80.68;32.25;;;;;;;5.13;100.00;100599.56;5569345;32;34166;-88
2023/01/08 00:41:15;;;;;;;83.85;31.92;;;;;;;5.11;100.00;100595.22;5569363;32;34163;-88
2023/01/08 00:44:17;;;;;;;81.60;31.33;;;;;;;5.11;100.00;100590.84;5569080;32;32720;-88
2023/01/08 00:47:20;;;;;;;94.43;33.42;;;;;;;5.15;100.00;100594.25;5577962;32;33833;-88
2023/01/08 00:50:23;;;;;;;85.53;31.77;;;;;;;5.15;100.00;100593.37;5568782;32;34279;-88
2023/01/08 00:53:26;;;;;;;78.62;32.10;;;;;;;5.18;100.00;100601.22;5569589;32;34939;-88
2023/01/08 00:56:29;;;;;;;73.18;31.55;;;;;;;5.12;100.00;100591.69;5568390;32;34437;-88
2023/01/08 00:59:32;;;;;;;77.53;31.50;;;;;;;5.12;100.00;100587.31;5568585;32;34073;-88
2023/01/08 01:02:35;;;;;;;70.95;31.02;;;;;;;5.06;100.00;100595.34;5568141;32;34382;-88
2023/01/08 01:05:38;;;;;;;76.12;31.08;;;;;;;5.11;100.00;100600.47;5567705;32;34606;-88
2023/01/08 01:08:43;;;;;;;79.55;30.80;;;;;;;5.13;100.00;100594.28;5567949;32;34263;-88
2023/01/08 01:11:46;;;;;;;73.07;31.10;;;;;;;5.20;100.00;100597.66;5567978;32;34145;-88
2023/01/08 01:14:48;;;;;;;68.55;30.55;;;;;;;5.19;100.00;100608.19;5568126;32;33647;-88
2023/01/08 01:17:51;;;;;;;80.90;30.83;;;;;;;5.20;100.00;100602.03;5568898;32;33720;-88
2023/01/08 01:20:54;;;;;;;69.15;29.00;;;;;;;5.21;100.00;100595.88;5568565;32;33891;-87
2023/01/08 01:24:00;;;;;;;68.05;30.27;;;;;;;5.43;100.00;100590.09;5568415;32;33955;-88
2023/01/08 01:27:03;;;;;;;69.25;30.58;;;;;;;5.24;100.00;100595.81;5568829;32;34463;-88
2023/01/08 01:30:07;;;;;;;70.80;29.85;;;;;;;5.13;100.00;100589.03;5570044;32;33997;-88
2023/01/08 01:33:10;;;;;;;72.62;29.75;;;;;;;5.15;100.00;100602.16;5569547;32;33159;-91
2023/01/08 01:36:14;;;;;;;73.53;29.77;;;;;;;5.15;100.00;100588.12;5583564;32;34629;-91
2023/01/08 01:39:18;;;;;;;70.97;28.58;;;;;;;5.20;100.00;100584.50;5569847;32;33371;-92
2023/01/08 01:42:40;;;;;;;67.78;29.25;;;;;;;5.17;100.00;100594.25;5569564;32;34041;-89
2023/01/08 01:45:42;;;;;;;70.32;29.58;;;;;;;5.12;100.00;100582.06;5567330;32;33747;-88
2023/01/08 01:48:49;;;;;;;72.37;29.15;;;;;;;5.10;100.00;100570.72;5567552;32;33803;-88
2023/01/08 01:51:55;;;;;;;71.18;28.65;;;;;;;5.12;100.00;100568.91;5567817;32;34482;-88
2023/01/08 01:55:00;;;;;;;65.78;28.83;;;;;;;5.14;100.00;100555.72;5576393;32;34727;-88
2023/01/08 01:58:09;;;;;;;66.40;29.17;;;;;;;5.18;100.00;100556.50;5578525;32;35190;-88
2023/01/08 02:01:12;;;;;;;69.65;28.55;;;;;;;5.13;100.00;100549.59;5566148;32;34595;-88
2023/01/08 02:04:16;;;;;;;70.45;29.58;;;;;;;5.16;100.00;100538.13;5567365;32;33700;-88
2023/01/08 02:07:29;;;;;;;63.15;26.30;;;;;;;5.25;100.00;100537.03;5567356;32;33608;-88
2023/01/08 02:10:56;;;;;;;66.00;29.27;;;;;;;5.26;100.00;100536.13;5569969;32;33642;-88
2023/01/08 02:14:11;;;;;;;62.67;28.23;;;;;;;5.20;100.00;100525.75;5571202;32;34526;-88
2023/01/08 02:17:25;;;;;;;61.92;27.65;;;;;;;5.18;100.00;100528.44;5567338;32;34561;-88
2023/01/08 02:20:46;;;;;;;61.05;26.17;;;;;;;5.24;100.00;100522.16;5567445;32;35079;-85
2023/01/08 02:24:15;;;;;;;65.90;27.80;;;;;;;5.25;100.00;100531.78;5568692;32;33954;-88
2023/01/08 02:27:20;;;;;;;61.78;27.65;;;;;;;5.26;100.00;100521.22;5568950;32;34428;-88
2023/01/08 02:30:24;;;;;;;61.30;26.05;;;;;;;5.29;100.00;100516.78;5567195;32;32725;-88
2023/01/08 02:33:28;;;;;;;62.90;27.00;;;;;;;5.25;100.00;100518.63;5571176;32;33897;-88
2023/01/08 02:36:33;;;;;;;60.45;26.35;;;;;;;5.31;100.00;100523.72;5569521;32;34616;-88
2023/01/08 02:39:50;;;;;;;60.28;26.17;;;;;;;5.24;100.00;100512.50;5567326;32;34951;-88
2023/01/08 02:43:18;;;;;;;59.63;26.35;;;;;;;5.29;100.00;100514.16;5567944;32;34503;-88
2023/01/08 02:46:27;;;;;;;54.88;25.20;;;;;;;5.23;100.00;100518.66;5567844;32;33665;-88
2023/01/08 02:49:34;;;;;;;57.83;26.35;;;;;;;5.18;100.00;100512.66;5567424;32;34154;-88
2023/01/08 02:52:47;;;;;;;54.25;25.17;;;;;;;5.13;100.00;100512.78;5568173;32;33803;-88
2023/01/08 02:56:04;;;;;;;56.05;25.75;;;;;;;5.24;100.00;100509.84;5568532;32;34766;-88
2023/01/08 02:59:11;;;;;;;51.80;25.45;;;;;;;5.12;100.00;100505.78;5568760;32;34632;-88
2023/01/08 03:02:15;;;;;;;52.78;24.73;;;;;;;5.06;100.00;100508.56;5569450;32;34745;-88
2023/01/08 03:05:25;;;;;;;51.78;25.27;;;;;;;5.08;100.00;100508.53;5577219;32;33564;-88
2023/01/08 03:08:30;;;;;;;50.42;23.38;;;;;;;5.22;100.00;100506.41;5576086;32;34247;-88
2023/01/08 03:11:39;;;;;;;51.80;24.83;;;;;;;5.17;100.00;100500.41;5577130;32;34135;-88
2023/01/08 03:14:57;;;;;;;57.25;25.40;;;;;;;5.18;100.00;100496.03;5567245;32;33977;-88
2023/01/08 03:18:08;;;;;;;54.13;24.52;;;;;;;5.13;100.00;100485.59;5566191;32;34504;-89
2023/01/08 03:21:12;;;;;;;50.17;25.07;;;;;;;5.10;100.00;100481.31;5569511;32;34018;-88
2023/01/08 03:24:22;;;;;;;58.13;26.17;;;;;;;5.09;100.00;100486.59;5567541;32;33765;-88
2023/01/08 03:27:31;;;;;;;53.70;25.83;;;;;;;5.13;100.00;100485.59;5566130;32;34207;-88
2023/01/08 03:30:37;;;;;;;54.92;24.83;;;;;;;5.15;100.00;100489.06;5565985;32;34217;-88
2023/01/08 03:33:43;;;;;;;47.88;23.70;;;;;;;5.21;100.00;100490.66;5567368;32;33901;-88
2023/01/08 03:36:48;;;;;;;54.17;25.60;;;;;;;5.19;100.00;100490.69;5568547;32;34271;-88
2023/01/08 03:40:07;;;;;;;50.00;24.98;;;;;;;5.09;100.00;100486.59;5568232;32;33983;-88
2023/01/08 03:43:09;;;;;;;52.95;25.15;;;;;;;5.11;100.00;100476.88;5569730;32;34013;-88
2023/01/08 03:46:19;;;;;;;56.42;26.08;;;;;;;5.05;100.00;100471.78;5569535;32;34102;-88
2023/01/08 03:49:25;;;;;;;55.78;26.42;;;;;;;5.07;100.00;100477.84;5569745;32;33598;-88
2023/01/08 03:52:29;;;;;;;52.50;24.17;;;;;;;5.06;100.00;100468.25;5570063;32;33842;-88
2023/01/08 03:55:32;;;;;;;51.30;25.12;;;;;;;5.07;100.00;100465.59;5579578;32;33907;-88
2023/01/08 03:58:35;;;;;;;57.20;25.58;;;;;;;5.19;100.00;100456.50;5569572;32;34101;-88
2023/01/08 04:01:39;;;;;;;54.67;25.42;;;;;;;5.17;100.00;100457.47;5568728;32;33777;-88
2023/01/08 04:04:43;;;;;;;52.08;25.52;;;;;;;5.05;100.00;100456.00;5568633;32;34254;-88
2023/01/08 04:07:46;;;;;;;52.35;24.83;;;;;;;5.12;100.00;100457.56;5568952;32;34224;-88
2023/01/08 04:10:48;;;;;;;53.05;25.60;;;;;;;5.06;100.00;100458.59;5577671;32;34751;-87
2023/01/08 04:13:51;;;;;;;54.65;25.83;;;;;;;5.11;100.00;100456.72;5584549;32;35230;-88
2023/01/08 04:16:56;;;;;;;56.55;26.12;;;;;;;5.05;100.00;100454.25;5570476;32;35215;-88
2023/01/08 04:19:58;;;;;;;55.60;25.30;;;;;;;5.07;100.00;100457.69;5570957;32;34596;-88
2023/01/08 04:23:01;;;;;;;57.90;27.35;;;;;;;5.07;100.00;100467.34;5580638;32;33953;-88
2023/01/08 04:26:05;;;;;;;54.65;26.27;;;;;;;5.10;100.00;100462.91;5568585;32;34464;-88
2023/01/08 04:29:09;;;;;;;57.58;25.88;;;;;;;5.03;100.00;100458.66;5568699;32;33929;-88
2023/01/08 04:32:12;;;;;;;54.75;26.67;;;;;;;4.93;100.00;100465.09;5568922;32;33933;-88
2023/01/08 04:35:15;;;;;;;57.67;26.25;;;;;;;4.95;100.00;100463.28;5568713;32;34787;-88
2023/01/08 04:38:17;;;;;;;58.42;26.67;;;;;;;5.12;100.00;100452.31;5570761;32;35141;-88
2023/01/08 04:41:21;;;;;;;54.00;25.73;;;;;;;5.11;100.00;100459.34;5579999;32;34461;-88
2023/01/08 04:44:24;;;;;;;57.38;25.37;;;;;;;5.00;100.00;100450.87;5569116;32;34307;-88
2023/01/08 04:47:27;;;;;;;61.28;27.10;;;;;;;4.99;100.00;100454.41;5567817;32;33915;-88
2023/01/08 04:50:30;;;;;;;62.92;27.90;;;;;;;4.94;100.00;100462.38;5568016;32;34618;-89
2023/01/08 04:53:35;;;;;;;62.95;27.67;;;;;;;4.94;100.00;100467.66;5567930;32;34222;-89
2023/01/08 04:56:38;;;;;;;60.95;27.37;;;;;;;4.92;100.00;100466.00;5568213;32;34374;-88
2023/01/08 04:59:41;;;;;;;54.78;26.02;;;;;;;5.02;100.00;100470.09;5569204;32;34009;-88
2023/01/08 05:02:43;;;;;;;56.03;25.95;;;;;;;4.99;100.00;100468.41;5571105;32;33760;-88
2023/01/08 05:05:46;;;;;;;58.97;27.05;;;;;;;5.07;100.00;100467.34;5568999;32;34277;-88
2023/01/08 05:08:51;;;;;;;59.00;26.35;;;;;;;5.00;100.00;100466.66;5572297;32;34492;-88
2023/01/08 05:11:54;;;;;;;58.58;26.73;;;;;;;5.08;100.00;100462.06;5575351;32;33962;-88
2023/01/08 05:14:57;;;;;;;57.58;27.15;;;;;;;5.08;100.00;100463.84;5578967;32;34345;-88
2023/01/08 05:18:02;;;;;;;59.47;26.58;;;;;;;4.99;100.00;100449.16;5576974;32;33884;-88
2023/01/08 05:21:05;;;;;;;56.08;25.75;;;;;;;5.04;100.00;100449.91;5581929;32;34449;-88
2023/01/08 05:24:10;;;;;;;52.28;25.52;;;;;;;5.06;100.00;100449.84;5581901;32;32726;-88
2023/01/08 05:27:13;;;;;;;55.38;27.05;;;;;;;5.05;100.00;100449.00;5580752;32;34982;-88
2023/01/08 05:30:16;;;;;;;55.47;25.50;;;;;;;5.12;100.00;100442.66;5580531;32;34139;-88
2023/01/08 05:33:19;;;;;;;60.00;26.33;;;;;;;5.12;100.00;100442.66;5579899;32;34150;-88
2023/01/08 05:36:21;;;;;;;56.28;26.75;;;;;;;5.15;100.00;100441.72;5581149;32;34958;-88
2023/01/08 05:39:24;;;;;;;57.75;27.25;;;;;;;5.09;100.00;100437.47;5583519;32;34811;-88
2023/01/08 05:42:27;;;;;;;58.42;26.25;;;;;;;5.01;100.00;100439.44;5583454;32;33799;-87
2023/01/08 05:45:33;;;;;;;60.55;27.30;;;;;;;5.03;100.00;100440.25;5583328;32;34993;-88
2023/01/08 05:48:36;;;;;;;53.83;25.33;;;;;;;4.97;100.00;100443.06;5583281;32;33850;-88
2023/01/08 05:51:38;;;;;;;56.80;26.40;;;;;;;4.98;100.00;100435.12;5583835;32;33984;-88
2023/01/08 05:54:41;;;;;;;55.15;26.67;;;;;;;5.01;100.00;100428.94;5584221;32;34550;-88
2023/01/08 05:57:44;;;;;;;56.00;26.17;;;;;;;5.02;100.00;100421.94;5584010;32;33667;-88
2023/01/08 06:00:47;;;;;;;51.78;25.85;;;;;;;5.03;100.00;100423.66;5584302;32;35057;-88
2023/01/08 06:03:50;;;;;;;57.45;25.95;;;;;;;5.08;100.00;100432.28;5584141;32;34814;-88
2023/01/08 06:06:52;;;;;;;50.05;25.37;;;;;;;5.04;100.00;100417.47;5583312;32;34868;-88
2023/01/08 06:09:55;;;;;;;52.85;26.58;;;;;;;5.06;100.00;100416.53;5582747;32;32875;-88
2023/01/08 06:12:58;;;;;;;58.05;27.95;;;;;;;5.03;100.00;100421.00;5578951;32;34531;-87
2023/01/08 06:16:01;;;;;;;54.67;26.37;;;;;;;5.03;100.00;100411.34;5573489;32;32908;-88
2023/01/08 06:19:04;;;;;;;50.17;25.48;;;;;;;5.13;100.00;100415.47;5582920;32;35356;-87
2023/01/08 06:22:06;;;;;;;63.95;26.67;;;;;;;5.12;100.00;100415.50;5572950;32;34055;-87
2023/01/08 06:25:09;;;;;;;53.47;26.75;;;;;;;5.03;100.00;100411.34;5583090;32;33890;-88
2023/01/08 06:28:12;;;;;;;57.40;26.50;;;;;;;4.90;100.00;100416.06;5582917;32;35100;-88
2023/01/08 06:31:14;;;;;;;57.00;26.65;;;;;;;4.84;100.00;100414.44;5582294;32;33310;-88
2023/01/08 06:34:18;;;;;;;47.58;24.92;;;;;;;4.99;100.00;100409.72;5581742;32;34157;-88
2023/01/08 06:37:20;;;;;;;55.88;24.80;;;;;;;4.92;100.00;100406.37;5583418;32;34906;-88
2023/01/08 06:40:23;;;;;;;51.28;25.27;;;;;;;5.00;100.00;100400.91;5583420;32;34854;-88
2023/01/08 06:43:26;;;;;;;50.30;24.25;;;;;;;4.96;100.00;100397.50;5583221;32;32742;-88
2023/01/08 06:46:29;;;;;;;52.83;25.55;;;;;;;4.96;100.00;100400.13;5583930;32;35058;-87
2023/01/08 06:49:31;;;;;;;50.28;25.12;;;;;;;4.86;100.00;100398.66;5583341;32;33940;-88
2023/01/08 06:52:34;;;;;;;48.95;25.00;;;;;;;4.91;100.00;100403.78;5582500;32;34921;-88
2023/01/08 06:55:37;;;;;;;53.42;25.52;;;;;;;5.05;100.00;100411.31;5582456;32;34742;-87
2023/01/08 06:58:40;;;;;;;55.97;26.33;;;;;;;5.03;100.00;100413.97;5582432;32;36284;-87
2023/01/08 07:01:43;;;;;;;55.47;25.80;;;;;;;4.97;100.00;100408.88;5581453;32;34039;-87
2023/01/08 07:04:46;;;;;;;52.25;26.33;;;;;;;4.98;100.00;100405.38;5582774;32;35110;-88
2023/01/08 07:07:49;;;;;;;50.58;24.52;;;;;;;4.95;100.00;100411.56;5582290;32;33409;-88
2023/01/08 07:10:52;;;;;;;51.60;25.52;;;;;;;5.07;100.00;100406.87;5586501;32;35081;-88
2023/01/08 07:13:55;;;;;;;52.70;26.42;;;;;;;5.07;100.00;100407.75;5585863;32;34878;-89
2023/01/08 07:16:58;;;;;;;55.40;27.17;;;;;;;5.07;100.00;100414.75;5585657;32;35240;-90
2023/01/08 07:20:01;;;;;;;52.28;26.00;;;;;;;5.12;100.00;100411.13;5584795;32;34990;-91
2023/01/08 07:23:06;;;;;;;52.67;26.70;;;;;;;5.07;100.00;100418.25;5582716;32;34693;-92
2023/01/08 07:26:09;;;;;;;51.58;26.60;;;;;;;4.89;100.00;100411.72;5585681;32;34209;-89
2023/01/08 07:29:12;;;;;;;54.05;25.52;;;;;;;4.92;100.00;100409.00;5582822;32;34752;-88
2023/01/08 07:32:15;;;;;;;54.58;26.27;;;;;;;4.97;100.00;100408.88;5585620;32;33970;-88
2023/01/08 07:35:18;;;;;;;49.58;25.67;;;;;;;4.95;100.00;100408.94;5583816;32;33645;-88
2023/01/08 07:38:21;;;;;;;52.20;25.95;;;;;;;5.02;100.00;100406.16;5584151;32;34174;-88
2023/01/08 07:41:25;;;;;;;58.08;27.00;;;;;;;5.08;100.00;100403.34;5585093;32;33760;-86
2023/01/08 07:44:28;;;;;;;55.45;27.52;;;;;;;4.91;100.00;100402.03;5583398;32;33298;-87
2023/01/08 07:47:31;;;;;;;54.60;28.45;;;;;;;4.92;100.00;100401.12;5584929;32;35019;-87
2023/01/08 07:50:36;;;;;;;55.80;28.45;;;;;;;5.06;100.00;100403.37;5584862;32;35312;-87
2023/01/08 07:53:39;;;;;;;58.03;29.25;;;;;;;5.06;100.00;100403.37;5585088;32;34789;-88
2023/01/08 07:56:42;;;;;;;59.13;28.40;;;;;;;5.01;100.00;100397.38;5585531;32;33779;-89
2023/01/08 07:59:45;;;;;;;55.10;27.37;;;;;;;5.01;100.00;100399.13;5575791;32;35073;-88
2023/01/08 08:02:48;;;;;;;53.15;28.27;;;;;;;4.92;100.00;100400.28;5575146;32;34468;-89
2023/01/08 08:05:52;;;;;;;56.80;27.87;;;;;;;5.01;100.00;100394.75;5572155;32;34100;-89
2023/01/08 08:08:56;;;;;;;50.95;27.35;;;;;;;5.01;100.00;100391.25;5571758;32;34170;-87
2023/01/08 08:12:00;;;;;;;52.40;27.50;;;;;;;4.96;100.00;100394.00;5571593;32;33715;-87
2023/01/08 08:15:03;;;;;;;49.67;27.52;;;;;;;5.06;100.00;100386.75;5569848;32;34261;-87
2023/01/08 08:18:08;;;;;;;53.35;28.02;;;;;;;5.04;100.00;100376.28;5569087;32;32927;-87
2023/01/08 08:21:11;;;;;;;58.22;27.70;;;;;;;5.05;100.00;100377.13;5575134;32;33903;-87
2023/01/08 08:24:15;;;;;;;52.72;27.52;;;;;;;5.08;100.00;100379.69;5570721;32;33793;-87
2023/01/08 08:27:17;;;;;;;54.45;27.52;;;;;;;4.98;100.00;100374.66;5570957;32;33953;-87
2023/01/08 08:30:20;;;;;;;53.53;27.13;;;;;;;5.04;100.00;100368.41;5571677;32;33793;-88
2023/01/08 08:33:25;;;;;;;54.80;27.75;;;;;;;4.90;100.00;100366.13;5567412;32;34194;-86
2023/01/08 08:36:29;;;;;;;52.70;26.95;;;;;;;4.95;100.00;100356.34;5571319;32;33855;-86
2023/01/08 08:39:32;;;;;;;58.08;26.48;;;;;;;4.93;100.00;100358.13;5573350;32;33914;-88
2023/01/08 08:42:35;;;;;;;52.85;25.90;;;;;;;5.12;100.00;100355.87;5572279;32;33785;-88
2023/01/08 08:45:37;;;;;;;53.25;26.58;;;;;;;5.18;100.00;100352.22;5575748;32;34045;-88
2023/01/08 08:48:40;;;;;;;47.97;25.48;;;;;;;5.09;100.00;100352.47;5583893;32;33970;-88
2023/01/08 08:51:43;;;;;;;47.58;25.08;;;;;;;5.11;100.00;100348.03;5583939;32;33713;-88
2023/01/08 08:54:46;;;;;;;50.72;26.05;;;;;;;5.11;100.00;100350.66;5575518;32;34057;-88
2023/01/08 08:57:49;;;;;;;51.63;26.08;;;;;;;5.10;100.00;100349.81;5570823;32;34021;-88
2023/01/08 09:00:52;;;;;;;50.42;26.87;;;;;;;5.34;100.00;100362.31;5569820;32;34076;-88
2023/01/08 09:03:54;;;;;;;46.83;25.35;;;;;;;5.20;100.00;100346.91;5569310;32;34406;-88
2023/01/08 09:06:58;;;;;;;47.55;25.62;;;;;;;5.40;100.00;100349.84;5572669;32;34424;-88
2023/01/08 09:10:01;;;;;;;46.37;25.08;;;;;;;5.30;100.00;100353.66;5573815;32;33689;-88
2023/01/08 09:13:05;;;;;;;51.15;25.33;;;;;;;5.33;100.00;100344.81;5573556;32;34661;-88
2023/01/08 09:16:07;;;;;;;46.35;25.35;;;;;;;5.28;100.00;100346.72;5572952;32;33601;-89
2023/01/08 09:19:11;;;;;;;48.28;25.50;;;;;;;5.23;100.00;100337.19;5580149;32;32496;-88
2023/01/08 09:22:13;;;;;;;47.83;24.80;;;;;;;5.46;100.00;100342.69;5576633;32;35080;-88
2023/01/08 09:25:16;;;;;;;43.20;23.92;;;;;;;5.33;100.00;100343.03;5574416;32;34607;-89
2023/01/08 09:28:19;;;;;;;47.00;24.92;;;;;;;5.43;100.00;100340.16;5576788;32;34875;-89
2023/01/08 09:31:23;;;;;;;44.65;24.63;;;;;;;5.40;100.00;100333.22;5576974;32;35046;-88
2023/01/08 09:34:26;;;;;;;45.65;23.60;;;;;;;5.61;100.00;100331.72;5574548;32;35232;-91
2023/01/08 09:37:29;;;;;;;44.92;24.35;;;;;;;5.52;100.00;100327.59;5569087;32;34426;-90
2023/01/08 09:40:39;;;;;;;42.35;23.45;;;;;;;5.55;100.00;100325.75;5568632;32;34001;-91
2023/01/08 09:43:46;;;;;;;47.97;24.67;;;;;;;5.53;100.00;100320.53;5573039;32;34108;-87
2023/01/08 09:46:49;;;;;;;46.67;23.23;;;;;;;5.47;100.00;100320.72;5583158;32;34118;-88
2023/01/08 09:49:56;;;;;;;43.45;23.15;;;;;;;5.59;100.00;100311.63;5581277;32;34842;-87
2023/01/08 09:52:59;;;;;;;42.72;23.10;;;;;;;5.71;100.00;100307.75;5573877;32;34024;-87
2023/01/08 09:56:09;;;;;;;41.75;22.92;;;;;;;6.00;100.00;100290.19;5570768;32;34811;-87
2023/01/08 09:59:16;;;;;;;42.10;22.73;;;;;;;6.44;100.00;100279.12;5576052;32;33866;-87
2023/01/08 10:02:22;;;;;;;45.20;22.98;;;;;;;7.14;100.00;100280.16;5575745;32;33954;-87
2023/01/08 10:05:27;;;;;;;41.30;22.10;;;;;;;7.04;100.00;100283.19;5568634;32;33924;-86
2023/01/08 10:08:29;;;;;;;36.10;21.98;;;;;;;6.43;100.00;100269.47;5568526;32;33792;-87
2023/01/08 10:11:41;;;;;;;35.20;21.30;;;;;;;6.42;100.00;100260.72;5568902;32;33948;-87
2023/01/08 10:14:48;;;;;;;40.33;22.50;;;;;;;6.51;100.00;100251.66;5569366;32;34606;-87
2023/01/08 10:18:06;;;;;;;37.30;21.42;;;;;;;6.60;100.00;100238.13;5574578;32;34021;-87
2023/01/08 10:21:13;;;;;;;36.45;20.85;;;;;;;6.53;100.00;100231.34;5579246;32;34569;-87
2023/01/08 10:24:16;;;;;;;41.60;23.23;;;;;;;6.46;100.00;100235.12;5570301;32;33769;-88
2023/01/08 10:27:21;;;;;;;38.25;23.10;;;;;;;6.35;100.00;100235.50;5573650;32;34260;-88
2023/01/08 10:30:37;;;;;;;38.72;21.90;;;;;;;6.37;100.00;100230.16;5575866;32;34287;-89
2023/01/08 10:33:43;;;;;;;40.10;22.62;;;;;;;6.45;100.00;100225.50;5568027;32;34156;-87
2023/01/08 10:36:46;;;;;;;38.15;22.95;;;;;;;6.49;100.00;100221.81;5566152;32;34449;-87
2023/01/08 10:39:51;;;;;;;38.17;23.08;;;;;;;6.56;100.00;100219.84;5577370;32;35073;-88
2023/01/08 10:42:55;;;;;;;36.17;22.42;;;;;;;6.60;100.00;100211.78;5570908;32;34874;-87
2023/01/08 10:46:01;;;;;;;34.80;21.37;;;;;;;6.72;100.00;100212.25;5567979;32;33594;-88
2023/01/08 10:49:12;;;;;;;35.97;22.20;;;;;;;6.68;100.00;100200.97;5570368;32;34218;-87
2023/01/08 10:52:25;;;;;;;35.08;21.00;;;;;;;6.85;100.00;100196.84;5567898;32;33859;-91
2023/01/08 10:55:38;;;;;;;35.45;21.42;;;;;;;6.89;100.00;100195.81;5569534;32;33896;-88
2023/01/08 10:58:42;;;;;;;39.78;21.95;;;;;;;7.01;100.00;100191.84;5567488;32;34148;-88
2023/01/08 11:01:49;;;;;;;36.13;21.67;;;;;;;7.08;100.00;100195.09;5567212;32;34616;-88
2023/01/08 11:04:52;;;;;;;36.35;22.80;;;;;;;6.96;100.00;100191.16;5570989;32;33844;-88
2023/01/08 11:07:57;;;;;;;36.33;21.50;;;;;;;7.07;100.00;100185.47;5566806;32;32326;-87
2023/01/08 11:11:01;;;;;;;35.20;21.90;;;;;;;7.21;100.00;100185.81;5569918;32;33825;-88
2023/01/08 11:14:22;;;;;;;36.38;22.60;;;;;;;7.15;100.00;100171.06;5568856;32;32853;-88
2023/01/08 11:17:26;;;;;;;35.95;22.35;;;;;;;6.92;100.00;100163.19;5555766;32;32952;-88
2023/01/08 11:20:30;;;;;;;39.95;22.80;;;;;;;7.07;100.00;100152.06;5570667;32;34387;-88
2023/01/08 11:23:33;;;;;;;34.53;22.35;;;;;;;7.08;100.00;100155.53;5569525;32;35116;-88
2023/01/08 11:26:39;;;;;;;39.22;23.48;;;;;;;7.17;100.00;100143.78;5568608;32;32654;-88
2023/01/08 11:29:52;;;;;;;37.45;22.98;;;;;;;7.27;100.00;100142.50;5571174;32;33986;-88
2023/01/08 11:32:59;;;;;;;38.78;23.67;;;;;;;7.21;100.00;100135.69;5577923;32;33706;-86
2023/01/08 11:36:11;;;;;;;41.35;24.17;;;;;;;6.96;100.00;100115.56;5582650;32;33864;-87
2023/01/08 11:39:18;;;;;;;38.10;23.35;;;;;;;7.08;100.00;100121.25;5581016;32;34735;-86
2023/01/08 11:42:59;;;;;;;37.63;23.42;;;;;;;7.30;100.00;100112.50;5576948;32;36130;-87
2023/01/08 11:46:45;;;;;;;35.08;22.77;;;;;;;7.40;100.00;100114.69;5573447;32;32518;-92
2023/01/08 11:49:57;;;;;;;36.33;23.77;;;;;;;7.35;100.00;100106.09;5567123;32;34122;-87
2023/01/08 11:53:09;;;;;;;38.95;23.85;;;;;;;7.20;100.00;100104.09;5567171;32;34522;-87
2023/01/08 11:56:33;;;;;;;37.45;23.10;;;;;;;7.36;100.00;100099.94;5570010;32;33616;-88
2023/01/08 12:00:02;;;;;;;42.25;23.85;;;;;;;7.66;100.00;100096.91;5577866;32;34534;-87
2023/01/08 12:03:32;;;;;;;36.80;23.52;;;;;;;7.68;100.00;100091.56;5580061;32;35291;-87
2023/01/08 12:06:44;;;;;;;39.17;24.25;;;;;;;7.80;100.00;100093.69;5577363;32;32445;-87
2023/01/08 12:10:00;;;;;;;38.22;24.05;;;;;;;7.86;100.00;100082.03;5578914;32;33942;-87
2023/01/08 12:13:06;;;;;;;39.50;24.98;;;;;;;7.66;100.00;100083.72;5578886;32;35195;-91
2023/01/08 12:16:47;;;;;;;39.58;25.58;;;;;;;7.72;100.00;100077.31;5580406;32;34627;-88
2023/01/08 12:20:10;;;;;;;39.25;25.00;;;;;;;7.76;100.00;100071.00;5572621;32;34175;-88
2023/01/08 12:23:35;;;;;;;38.65;24.33;;;;;;;7.84;100.00;100070.66;5569782;32;34096;-87
2023/01/08 12:26:49;;;;;;;38.28;24.73;;;;;;;8.00;100.00;100078.75;5570893;32;33792;-88
2023/01/08 12:29:54;;;;;;;41.97;25.23;;;;;;;8.09;100.00;100081.00;5572504;32;33845;-88
2023/01/08 12:33:03;;;;;;;40.00;25.50;;;;;;;8.19;100.00;100080.59;5571375;32;34124;-88
2023/01/08 12:36:17;;;;;;;38.05;25.48;;;;;;;8.11;100.00;100074.78;5569478;32;33952;-88
2023/01/08 12:39:26;;;;;;;38.17;25.00;;;;;;;8.23;100.00;100077.75;5572297;32;34621;-88
2023/01/08 12:42:32;;;;;;;39.05;25.85;;;;;;;8.26;100.00;100068.84;5568976;32;33686;-88
2023/01/08 12:45:42;;;;;;;38.92;26.27;;;;;;;8.21;100.00;100071.66;5578587;32;33178;-88
2023/01/08 12:48:48;;;;;;;39.80;26.80;;;;;;;8.22;100.00;100064.59;5575780;32;34327;-92
2023/01/08 12:52:23;;;;;;;38.55;26.67;;;;;;;8.23;100.00;100064.53;5569541;31;33563;-93
2023/01/08 12:55:45;;;;;;;41.90;27.42;;;;;;;8.08;100.00;100059.94;5571808;32;34625;-89
2023/01/08 12:59:14;;;;;;;40.58;27.35;;;;;;;8.05;100.00;100060.09;5569584;32;33665;-88
2023/01/08 13:02:43;;;;;;;42.08;27.17;;;;;;;7.90;100.00;100062.47;5569309;32;34556;-88
2023/01/08 13:05:48;;;;;;;41.47;26.55;;;;;;;7.79;100.00;100055.00;5577753;31;33987;-88
2023/01/08 13:08:54;;;;;;;43.03;28.00;;;;;;;7.84;100.00;100057.44;5573878;32;33519;-88
2023/01/08 13:11:59;;;;;;;40.45;27.10;;;;;;;7.79;100.00;100048.84;5569191;32;34630;-88
2023/01/08 13:15:04;;;;;;;41.05;26.08;;;;;;;7.82;100.00;100054.91;5569092;32;34383;-88
2023/01/08 13:18:16;;;;;;;41.22;26.52;;;;;;;7.87;100.00;100046.75;5568511;32;33088;-88
2023/01/08 13:21:37;;;;;;;46.65;28.48;;;;;;;7.87;100.00;100048.53;5573627;32;34545;-88
2023/01/08 13:24:41;;;;;;;47.45;29.42;;;;;;;7.80;100.00;100045.31;5569822;32;34676;-92
2023/01/08 13:27:45;;;;;;;43.47;27.40;;;;;;;7.85;100.00;100043.31;5570155;32;35080;-93
2023/01/08 13:30:49;;;;;;;40.60;27.02;;;;;;;7.86;100.00;100052.09;5567776;32;33060;-89
2023/01/08 13:33:52;;;;;;;37.55;25.65;;;;;;;7.80;100.00;100048.78;5567735;32;32552;-89
2023/01/08 13:36:57;;;;;;;39.28;26.02;;;;;;;8.11;100.00;100045.72;5571182;32;34453;-88
2023/01/08 13:39:59;;;;;;;41.83;26.45;;;;;;;7.81;100.00;100054.94;5570605;32;34212;-89
2023/01/08 13:43:05;;;;;;;42.25;26.62;;;;;;;7.77;100.00;100053.34;5571922;32;34592;-89
2023/01/08 13:46:17;;;;;;;46.85;26.70;;;;;;;7.36;100.00;100041.88;5579206;32;32934;-87
2023/01/08 13:49:44;;;;;;;45.50;27.98;;;;;;;7.15;100.00;100036.53;5577072;32;34768;-87
2023/01/08 13:52:54;;;;;;;46.05;28.30;;;;;;;7.20;100.00;100038.97;5570481;32;34013;-87
2023/01/08 13:56:01;;;;;;;45.78;28.40;;;;;;;7.15;100.00;100028.62;5569502;32;34304;-87
2023/01/08 13:59:05;;;;;;;48.25;29.27;;;;;;;7.13;100.00;100026.97;5568199;32;32790;-87
2023/01/08 14:02:25;;;;;;;49.60;31.62;;;;;;;7.20;100.00;100036.34;5568420;32;32723;-87
2023/01/08 14:05:33;;;;;;;47.92;29.23;;;;;;;6.99;100.00;100041.59;5569072;32;33812;-87
2023/01/08 14:08:47;;;;;;;52.17;30.08;;;;;;;7.22;100.00;100044.19;5568509;32;34178;-87